Alps Wideshine — 9HA2472 — position and weather

sailwx.info

Track history (hours):
 
Tides and Currents Weather Stations Pressure Air Temp Water Temp Dewpoint Dewpoint Depression Visibility Wind Speed Wind Dir Waves Ship Positions

Alps Wideshine

Last reported at 2014-Jun-10 06:32 UTC. Time now 2014-Sep-19 05:48 UTC.
Position N 25°08' W 080°05'.
Warning: this ship's position is months out of date.

Length 107 m; draft 5.3 m.

Type: Tanker. MMSI: 248694000.

Date/timePositionNaut miles runAvg speedWind from/ knotsBaromVisibWave heightAir tempDewpointWater temp
2014-Jun-10 06:32N 25°08' W 080°05'23 7.8
2014-Jun-10 03:33N 25°30' W 079°58'8 8.5
2014-Jun-10 02:33N 25°39' W 079°58'9 8.6
2014-Jun-10 01:33N 25°47' W 079°57'9 8.5
2014-Jun-10 00:33N 25°56' W 079°58'9 8.5
2014-Jun-09 23:33N 26°04' W 079°58'8 8.4
2014-Jun-09 22:33N 26°13' W 079°58'8 7.9
2014-Jun-09 21:33N 26°20' W 079°57'8 7.7
2014-Jun-09 20:33N 26°28' W 079°57'8 8.2
2014-Jun-09 19:33N 26°36' W 079°58'10 0.3
2014-Jun-08 14:31N 26°47' W 079°57'5 4.9
2014-Jun-08 13:33N 26°45' W 079°52'5 5.0
2014-Jun-08 12:30N 26°42' W 079°47'1011.1
2014-Jun-08 11:33N 26°39' W 079°36'1111.2
2014-Jun-08 10:33N 26°35' W 079°25'1110.7
2014-Jun-08 09:33N 26°31' W 079°14'1010.5
2014-Jun-08 08:33N 26°26' W 079°03'  
Track history (hours):
 
Tides and Currents Weather Stations Pressure Air Temp Water Temp Dewpoint Dewpoint Depression Visibility Wind Speed Wind Dir Waves Ship Positions

Alps Wideshine

Last reported at 2014-Jun-10 06:32 UTC. Time now 2014-Sep-19 05:48 UTC.
Position N 25°08' W 080°05'.
Warning: this ship's position is months out of date.

Length 107 m; draft 5.3 m.

Type: Tanker. MMSI: 248694000.

Date/timePositionNaut miles runAvg speedWind from/ knotsBaromVisibWave heightAir tempDewpointWater temp
2014-Jun-10 06:32N 25°08' W 080°05'23 7.8
2014-Jun-10 03:33N 25°30' W 079°58'8 8.5
2014-Jun-10 02:33N 25°39' W 079°58'9 8.6
2014-Jun-10 01:33N 25°47' W 079°57'9 8.5
2014-Jun-10 00:33N 25°56' W 079°58'9 8.5
2014-Jun-09 23:33N 26°04' W 079°58'8 8.4
2014-Jun-09 22:33N 26°13' W 079°58'8 7.9
2014-Jun-09 21:33N 26°20' W 079°57'8 7.7
2014-Jun-09 20:33N 26°28' W 079°57'8 8.2
2014-Jun-09 19:33N 26°36' W 079°58'10 0.3
2014-Jun-08 14:31N 26°47' W 079°57'5 4.9
2014-Jun-08 13:33N 26°45' W 079°52'5 5.0
2014-Jun-08 12:30N 26°42' W 079°47'1011.1
2014-Jun-08 11:33N 26°39' W 079°36'1111.2
2014-Jun-08 10:33N 26°35' W 079°25'1110.7
2014-Jun-08 09:33N 26°31' W 079°14'1010.5
2014-Jun-08 08:33N 26°26' W 079°03'  

Dump ship's entire track history